Aviation Digital Data Service (ADDS)

Output produced by METARs form (0403 UTC 19 August 2019)
found at http://www.aviationweather.gov/metar/data/
 
METAR text: RJSA 190300Z 05010KT 9999 FEW030 29/21 Q1012
Conditions at: RJSA (AOMORI AIRPORT , JP) observed 0300 UTC 19 August 2019
Temperature: 29.0°C (84°F)
Dewpoint: 21.0°C (70°F) [RH = 62%]
Pressure (altimeter): 29.88 inches Hg (1012.0 mb)
Winds: from the NE (50 degrees) at 12 MPH (10 knots; 5.1 m/s)
Visibility: 6 or more miles (10+ km)
Ceiling: at least 12,000 feet AGL
Clouds: few clouds at 3000 feet AGL
Weather: no significant weather observed at this time

METAR text: RJSA 190200Z 04006KT 350V070 9999 FEW030 28/21 Q1012
Conditions at: RJSA (AOMORI AIRPORT , JP) observed 0200 UTC 19 August 2019
Temperature: 28.0°C (82°F)
Dewpoint: 21.0°C (70°F) [RH = 66%]
Pressure (altimeter): 29.88 inches Hg (1012.0 mb)
Winds: from the NE (40 degrees) at 7 MPH (6 knots; 3.1 m/s)
Visibility: 6 or more miles (10+ km)
Ceiling: at least 12,000 feet AGL
Clouds: few clouds at 3000 feet AGL
Weather: no significant weather observed at this time

METAR text: RJSA 190100Z 04006KT 9999 FEW020 SCT/// 27/21 Q1013
Conditions at: RJSA (AOMORI AIRPORT , JP) observed 0100 UTC 19 August 2019
Temperature: 27.0°C (81°F)
Dewpoint: 21.0°C (70°F) [RH = 70%]
Pressure (altimeter): 29.91 inches Hg (1013.0 mb)
Winds: from the NE (40 degrees) at 7 MPH (6 knots; 3.1 m/s)
Visibility: 6 or more miles (10+ km)
Ceiling: at least 12,000 feet AGL
Clouds: few clouds at 2000 feet AGL
Weather: no significant weather observed at this time

METAR text: RJSA 190000Z 05006KT 010V080 9999 FEW005 BKN/// 25/21 Q1012
Conditions at: RJSA (AOMORI AIRPORT , JP) observed 0000 UTC 19 August 2019
Temperature: 25.0°C (77°F)
Dewpoint: 21.0°C (70°F) [RH = 79%]
Pressure (altimeter): 29.88 inches Hg (1012.0 mb)
Winds: from the NE (50 degrees) at 7 MPH (6 knots; 3.1 m/s)
Visibility: 6 or more miles (10+ km)
Ceiling: at least 12,000 feet AGL
Clouds: few clouds at 500 feet AGL
Weather: no significant weather observed at this time

METAR text: RJSA 182300Z 05005KT 9999 FEW005 BKN/// 24/21 Q1012
Conditions at: RJSA (AOMORI AIRPORT , JP) observed 2300 UTC 18 August 2019
Temperature: 24.0°C (75°F)
Dewpoint: 21.0°C (70°F) [RH = 83%]
Pressure (altimeter): 29.88 inches Hg (1012.0 mb)
Winds: from the NE (50 degrees) at 6 MPH (5 knots; 2.6 m/s)
Visibility: 6 or more miles (10+ km)
Ceiling: at least 12,000 feet AGL
Clouds: few clouds at 500 feet AGL
Weather: no significant weather observed at this time

METAR text: RJSA 182200Z VRB02KT 1600 R24/0400VP1800U BCFG BR BKN001 BKN002 21/21 Q1012
Conditions at: RJSA (AOMORI AIRPORT , JP) observed 2200 UTC 18 August 2019
Temperature: 21.0°C (70°F)
Dewpoint: 21.0°C (70°F) [RH = 100%]
Pressure (altimeter): 29.88 inches Hg (1012.0 mb)
Winds: variable direction winds at 2 MPH (2 knots; 1.0 m/s)
Visibility: 0.99 miles (1.59 km)
Ceiling: 100 feet AGL
Clouds: broken clouds at 100 feet AGL
broken clouds at 200 feet AGL
Weather: BCFG BR  (patches of fog, mist)

METAR text: RJSA 181200Z VRB03KT 9999 FEW040 20/19 Q1010
Conditions at: RJSA (AOMORI AIRPORT , JP) observed 1200 UTC 18 August 2019
Temperature: 20.0°C (68°F)
Dewpoint: 19.0°C (66°F) [RH = 94%]
Pressure (altimeter): 29.82 inches Hg (1010.0 mb)
Winds: variable direction winds at 3 MPH (3 knots; 1.5 m/s)
Visibility: 6 or more miles (10+ km)
Ceiling: at least 12,000 feet AGL
Clouds: few clouds at 4000 feet AGL
Weather: no significant weather observed at this time

METAR text: RJSA 181100Z VRB01KT 9999 FEW030 SCT040 21/20 Q1010
Conditions at: RJSA (AOMORI AIRPORT , JP) observed 1100 UTC 18 August 2019
Temperature: 21.0°C (70°F)
Dewpoint: 20.0°C (68°F) [RH = 94%]
Pressure (altimeter): 29.82 inches Hg (1010.0 mb)
Winds: variable direction winds at 1 MPH (1 knots; 0.5 m/s)
Visibility: 6 or more miles (10+ km)
Ceiling: at least 12,000 feet AGL
Clouds: few clouds at 3000 feet AGL
scattered clouds at 4000 feet AGL
Weather: no significant weather observed at this time

METAR text: RJSA 181000Z 03003KT 9999 FEW030 SCT040 22/20 Q1010
Conditions at: RJSA (AOMORI AIRPORT , JP) observed 1000 UTC 18 August 2019
Temperature: 22.0°C (72°F)
Dewpoint: 20.0°C (68°F) [RH = 88%]
Pressure (altimeter): 29.82 inches Hg (1010.0 mb)
Winds: from the NNE (30 degrees) at 3 MPH (3 knots; 1.5 m/s)
Visibility: 6 or more miles (10+ km)
Ceiling: at least 12,000 feet AGL
Clouds: few clouds at 3000 feet AGL
scattered clouds at 4000 feet AGL
Weather: no significant weather observed at this time

METAR text: RJSA 180900Z 03004KT 9999 FEW030 25/21 Q1009
Conditions at: RJSA (AOMORI AIRPORT , JP) observed 0900 UTC 18 August 2019
Temperature: 25.0°C (77°F)
Dewpoint: 21.0°C (70°F) [RH = 79%]
Pressure (altimeter): 29.79 inches Hg (1009.0 mb)
Winds: from the NNE (30 degrees) at 5 MPH (4 knots; 2.1 m/s)
Visibility: 6 or more miles (10+ km)
Ceiling: at least 12,000 feet AGL
Clouds: few clouds at 3000 feet AGL
Weather: no significant weather observed at this time

METAR text: RJSA 180800Z 06007KT 9999 FEW030 26/21 Q1009
Conditions at: RJSA (AOMORI AIRPORT , JP) observed 0800 UTC 18 August 2019
Temperature: 26.0°C (79°F)
Dewpoint: 21.0°C (70°F) [RH = 74%]
Pressure (altimeter): 29.79 inches Hg (1009.0 mb)
Winds: from the ENE (60 degrees) at 8 MPH (7 knots; 3.6 m/s)
Visibility: 6 or more miles (10+ km)
Ceiling: at least 12,000 feet AGL
Clouds: few clouds at 3000 feet AGL
Weather: no significant weather observed at this time

METAR text: RJSA 180700Z 06007KT 9999 FEW030 27/21 Q1008
Conditions at: RJSA (AOMORI AIRPORT , JP) observed 0700 UTC 18 August 2019
Temperature: 27.0°C (81°F)
Dewpoint: 21.0°C (70°F) [RH = 70%]
Pressure (altimeter): 29.76 inches Hg (1008.0 mb)
Winds: from the ENE (60 degrees) at 8 MPH (7 knots; 3.6 m/s)
Visibility: 6 or more miles (10+ km)
Ceiling: at least 12,000 feet AGL
Clouds: few clouds at 3000 feet AGL
Weather: no significant weather observed at this time

METAR text: RJSA 180600Z 04007KT 9999 FEW030 SCT050 27/21 Q1008
Conditions at: RJSA (AOMORI AIRPORT , JP) observed 0600 UTC 18 August 2019
Temperature: 27.0°C (81°F)
Dewpoint: 21.0°C (70°F) [RH = 70%]
Pressure (altimeter): 29.76 inches Hg (1008.0 mb)
Winds: from the NE (40 degrees) at 8 MPH (7 knots; 3.6 m/s)
Visibility: 6 or more miles (10+ km)
Ceiling: at least 12,000 feet AGL
Clouds: few clouds at 3000 feet AGL
scattered clouds at 5000 feet AGL
Weather: no significant weather observed at this time

METAR text: RJSA 180500Z 04006KT 360V070 9999 FEW040 BKN/// 28/21 Q1008
Conditions at: RJSA (AOMORI AIRPORT , JP) observed 0500 UTC 18 August 2019
Temperature: 28.0°C (82°F)
Dewpoint: 21.0°C (70°F) [RH = 66%]
Pressure (altimeter): 29.76 inches Hg (1008.0 mb)
Winds: from the NE (40 degrees) at 7 MPH (6 knots; 3.1 m/s)
Visibility: 6 or more miles (10+ km)
Ceiling: at least 12,000 feet AGL
Clouds: few clouds at 4000 feet AGL
Weather: no significant weather observed at this time

METAR text: RJSA 180400Z 02007KT 9999 FEW030 SCT040 BKN/// 29/21 Q1008
Conditions at: RJSA (AOMORI AIRPORT , JP) observed 0400 UTC 18 August 2019
Temperature: 29.0°C (84°F)
Dewpoint: 21.0°C (70°F) [RH = 62%]
Pressure (altimeter): 29.76 inches Hg (1008.0 mb)
Winds: from the NNE (20 degrees) at 8 MPH (7 knots; 3.6 m/s)
Visibility: 6 or more miles (10+ km)
Ceiling: at least 12,000 feet AGL
Clouds: few clouds at 3000 feet AGL
scattered clouds at 4000 feet AGL
Weather: no significant weather observed at this time

METAR text: RJSA 180300Z 29006KT 260V330 9999 FEW030 SCT040 BKN/// 30/19 Q1008
Conditions at: RJSA (AOMORI AIRPORT , JP) observed 0300 UTC 18 August 2019
Temperature: 30.0°C (86°F)
Dewpoint: 19.0°C (66°F) [RH = 52%]
Pressure (altimeter): 29.76 inches Hg (1008.0 mb)
Winds: from the WNW (290 degrees) at 7 MPH (6 knots; 3.1 m/s)
Visibility: 6 or more miles (10+ km)
Ceiling: at least 12,000 feet AGL
Clouds: few clouds at 3000 feet AGL
scattered clouds at 4000 feet AGL
Weather: no significant weather observed at this time

METAR text: RJSA 180200Z VRB06KT 9999 FEW030 SCT040 BKN/// 29/18 Q1008
Conditions at: RJSA (AOMORI AIRPORT , JP) observed 0200 UTC 18 August 2019
Temperature: 29.0°C (84°F)
Dewpoint: 18.0°C (64°F) [RH = 52%]
Pressure (altimeter): 29.76 inches Hg (1008.0 mb)
Winds: variable direction winds at 7 MPH (6 knots; 3.1 m/s)
Visibility: 6 or more miles (10+ km)
Ceiling: at least 12,000 feet AGL
Clouds: few clouds at 3000 feet AGL
scattered clouds at 4000 feet AGL
Weather: no significant weather observed at this time

METAR text: RJSA 180100Z 26007KT 220V320 9999 FEW030 BKN/// 28/19 Q1008
Conditions at: RJSA (AOMORI AIRPORT , JP) observed 0100 UTC 18 August 2019
Temperature: 28.0°C (82°F)
Dewpoint: 19.0°C (66°F) [RH = 58%]
Pressure (altimeter): 29.76 inches Hg (1008.0 mb)
Winds: from the W (260 degrees) at 8 MPH (7 knots; 3.6 m/s)
Visibility: 6 or more miles (10+ km)
Ceiling: at least 12,000 feet AGL
Clouds: few clouds at 3000 feet AGL
Weather: no significant weather observed at this time

METAR text: RJSA 180000Z 27005KT 210V340 9999 FEW030 27/19 Q1008
Conditions at: RJSA (AOMORI AIRPORT , JP) observed 0000 UTC 18 August 2019
Temperature: 27.0°C (81°F)
Dewpoint: 19.0°C (66°F) [RH = 62%]
Pressure (altimeter): 29.76 inches Hg (1008.0 mb)
Winds: from the W (270 degrees) at 6 MPH (5 knots; 2.6 m/s)
Visibility: 6 or more miles (10+ km)
Ceiling: at least 12,000 feet AGL
Clouds: few clouds at 3000 feet AGL
Weather: no significant weather observed at this time

METAR text: RJSA 172300Z 22007KT 9999 FEW030 26/19 Q1008
Conditions at: RJSA (AOMORI AIRPORT , JP) observed 2300 UTC 17 August 2019
Temperature: 26.0°C (79°F)
Dewpoint: 19.0°C (66°F) [RH = 65%]
Pressure (altimeter): 29.76 inches Hg (1008.0 mb)
Winds: from the SW (220 degrees) at 8 MPH (7 knots; 3.6 m/s)
Visibility: 6 or more miles (10+ km)
Ceiling: at least 12,000 feet AGL
Clouds: few clouds at 3000 feet AGL
Weather: no significant weather observed at this time

METAR text: RJSA 172200Z 22005KT 9999 FEW015 23/20 Q1008
Conditions at: RJSA (AOMORI AIRPORT , JP) observed 2200 UTC 17 August 2019
Temperature: 23.0°C (73°F)
Dewpoint: 20.0°C (68°F) [RH = 83%]
Pressure (altimeter): 29.76 inches Hg (1008.0 mb)
Winds: from the SW (220 degrees) at 6 MPH (5 knots; 2.6 m/s)
Visibility: 6 or more miles (10+ km)
Ceiling: at least 12,000 feet AGL
Clouds: few clouds at 1500 feet AGL
Weather: no significant weather observed at this time

Forecast for: RJSA (AOMORI AIRPORT , JP)
Text: TAF RJSA 182307Z 1900/2006 03006KT 9999 FEW020
Forecast period: 0000 UTC 19 August 2019 to 0600 UTC 20 August 2019
Forecast type: FROM: standard forecast or significant change
Winds: from the NNE (30 degrees) at 7 MPH (6 knots; 3.1 m/s)
Visibility: 6 or more miles 10+ km)
Ceiling: at least 12,000 feet AGL
Clouds: few clouds at 2000 feet AGL
Weather: no significant weather forecast for this period
Text: TEMPO 1918/2000 1500 -RA BR FEW003 BKN005 BKN008
Forecast period: 1800 UTC 19 August 2019 to 0000 UTC 20 August 2019
Forecast type: TEMPORARY: The following changes expected for less than half the time period
Visibility: 0.93 miles (1.50 km)
Ceiling: 500 feet AGL
Clouds: few clouds at 300 feet AGL
broken clouds at 500 feet AGL
broken clouds at 800 feet AGL
Weather: -RA BR  (light rain, mist)